createdAt,value
2018-02-17T15:52:17.984Z,20.57
2018-02-17T15:53:17.920Z,20.60
2018-02-17T15:55:10.836Z,20.40
2018-02-17T15:56:10.771Z,20.42
2018-02-17T15:58:03.693Z,20.46
2018-02-17T15:59:03.663Z,20.41
2018-02-17T16:00:56.531Z,20.56
2018-02-17T16:01:56.497Z,20.57
2018-02-17T16:03:49.415Z,20.56
2018-02-17T16:04:49.427Z,20.57
2018-02-17T16:06:42.264Z,20.63
2018-02-17T16:07:42.229Z,20.60
2018-02-17T16:09:35.100Z,20.58
2018-02-17T16:10:35.092Z,20.71
2018-02-17T16:12:27.999Z,20.71
2018-02-17T16:13:27.955Z,20.76
2018-02-17T16:15:20.837Z,20.78
2018-02-17T16:16:20.813Z,20.79
2018-02-17T16:18:13.800Z,20.81
2018-02-17T16:19:13.673Z,20.79
2018-02-17T16:21:06.561Z,20.87
2018-02-17T16:22:06.535Z,20.87
2018-02-17T16:23:59.447Z,20.94
2018-02-17T16:24:59.408Z,20.91
2018-02-17T16:25:59.400Z,20.87
2018-02-17T16:26:59.437Z,20.90
2018-02-17T16:27:59.402Z,21.03
2018-02-17T16:28:59.439Z,20.94
2018-02-17T16:29:59.386Z,20.98
2018-02-17T16:30:59.383Z,20.94
2018-02-17T16:31:59.395Z,20.96
2018-02-17T16:32:59.451Z,20.94
2018-02-17T16:33:59.361Z,21.03
2018-02-17T16:34:59.354Z,21.00
2018-02-17T16:35:59.355Z,21.08
2018-02-17T16:36:59.343Z,21.05
2018-02-17T16:37:59.340Z,21.08
2018-02-17T16:38:59.419Z,21.03
2018-02-17T16:39:59.328Z,21.08
2018-02-17T16:40:59.336Z,21.08
2018-02-17T16:41:59.349Z,21.08
2018-02-17T16:42:59.316Z,21.09
2018-02-17T16:43:59.336Z,21.06
2018-02-17T16:44:59.308Z,21.09
2018-02-17T16:45:59.306Z,21.08
2018-02-17T16:46:59.430Z,21.12
2018-02-17T16:47:59.317Z,21.15
2018-02-17T16:48:59.294Z,21.22
2018-02-17T16:49:59.330Z,21.16
2018-02-17T16:50:59.273Z,21.15
2018-02-17T16:51:59.269Z,21.13
2018-02-17T16:52:59.427Z,21.24
2018-02-17T16:53:59.261Z,21.19
2018-02-17T16:54:59.257Z,21.16
2018-02-17T16:55:59.271Z,21.16
2018-02-17T16:56:59.245Z,21.13
2018-02-17T16:57:59.262Z,21.16
2018-02-17T16:58:59.246Z,21.21
2018-02-17T16:59:59.235Z,21.16
2018-02-17T17:00:59.234Z,21.15
2018-02-17T17:01:59.264Z,21.15
2018-02-17T17:02:59.210Z,21.08
2018-02-17T17:03:59.209Z,21.11
2018-02-17T17:04:59.213Z,21.12
2018-02-17T17:05:59.210Z,21.09
2018-02-17T17:06:59.214Z,21.13
2018-02-17T17:07:59.205Z,21.12
2018-02-17T17:08:59.196Z,21.00
2018-02-17T17:09:59.199Z,21.03
2018-02-17T17:10:59.180Z,21.06
2018-02-17T17:11:59.180Z,21.09
2018-02-17T17:12:59.198Z,21.00
2018-02-17T17:13:59.175Z,21.00
2018-02-17T17:14:59.172Z,21.00
2018-02-17T17:15:59.167Z,21.03
2018-02-17T17:16:59.179Z,21.01
2018-02-17T17:17:59.162Z,21.01
2018-02-17T17:18:59.143Z,21.01
2018-02-17T17:19:59.160Z,21.00
2018-02-17T17:20:59.165Z,20.96
2018-02-17T17:21:59.143Z,20.94
2018-02-17T17:22:59.160Z,20.90
2018-02-17T17:23:59.142Z,20.90
2018-02-17T17:24:59.112Z,20.91
2018-02-17T17:25:59.122Z,20.87
2018-02-17T17:26:59.125Z,20.85
2018-02-17T17:27:59.127Z,20.82
2018-02-17T17:28:59.114Z,20.96
2018-02-17T17:29:59.090Z,20.78
2018-02-17T17:30:59.103Z,20.83
2018-02-17T17:31:59.090Z,20.83
2018-02-17T17:32:59.087Z,20.91
2018-02-17T17:33:59.090Z,20.72
2018-02-17T17:34:59.092Z,20.91
2018-02-17T17:35:59.078Z,20.88
2018-02-17T17:36:59.077Z,20.88
2018-02-17T17:37:59.078Z,20.83
2018-02-17T17:38:59.075Z,20.83
2018-02-17T17:39:59.055Z,20.81
2018-02-17T17:40:59.039Z,20.81
2018-02-17T17:41:59.079Z,20.82
2018-02-17T17:42:59.042Z,20.90
2018-02-17T17:43:59.052Z,20.76
2018-02-17T17:44:59.035Z,20.90
2018-02-17T17:45:59.052Z,20.75
2018-02-17T17:46:59.035Z,20.78
2018-02-17T17:47:59.047Z,20.85
2018-02-17T17:48:59.027Z,20.75
2018-02-17T17:49:59.032Z,20.79
2018-02-17T17:50:59.015Z,20.83
2018-02-17T17:51:59.014Z,20.83
2018-02-17T17:52:59.004Z,20.73
2018-02-17T17:53:58.997Z,20.78
2018-02-17T17:54:58.992Z,20.71
2018-02-17T17:55:58.996Z,20.76
2018-02-17T17:56:59.021Z,20.66
2018-02-17T17:57:58.969Z,20.73
2018-02-17T17:58:59.064Z,20.71
2018-02-17T17:59:58.982Z,20.71
2018-02-17T18:00:58.966Z,20.73
2018-02-17T18:01:58.954Z,20.73
2018-02-17T18:02:59.002Z,20.66
2018-02-17T18:03:58.946Z,20.61
2018-02-17T18:04:58.943Z,20.71
2018-02-17T18:05:58.945Z,20.79
2018-02-17T18:06:58.935Z,20.72
2018-02-17T18:07:58.939Z,20.73
2018-02-17T18:08:58.960Z,20.72
2018-02-17T18:09:58.940Z,20.75
2018-02-17T18:10:58.981Z,20.64
2018-02-17T18:11:58.918Z,20.68
2018-02-17T18:12:58.903Z,20.58
2018-02-17T18:13:58.903Z,20.61
2018-02-17T18:14:58.907Z,20.63
2018-02-17T18:15:58.901Z,20.61
2018-02-17T18:16:58.906Z,20.58
2018-02-17T18:17:58.915Z,20.64
2018-02-17T18:18:58.894Z,20.60
2018-02-17T18:19:58.892Z,20.61
2018-02-17T18:20:58.913Z,20.66
2018-02-17T18:21:58.872Z,20.61
2018-02-17T18:22:58.882Z,20.68
2018-02-17T18:23:58.868Z,20.61
2018-02-17T18:24:58.879Z,20.60
2018-02-17T18:25:58.859Z,20.72
2018-02-17T18:26:58.853Z,20.71
2018-02-17T18:27:58.864Z,20.68
2018-02-17T18:28:58.855Z,20.76
2018-02-17T18:29:58.847Z,20.75
2018-02-17T18:30:58.827Z,20.75
2018-02-17T18:31:58.830Z,20.79
2018-02-17T18:32:58.845Z,20.82
2018-02-17T18:33:58.833Z,20.81
2018-02-17T18:34:58.825Z,20.73
2018-02-17T18:35:58.802Z,20.83
2018-02-17T18:36:58.810Z,20.83
2018-02-17T18:37:58.825Z,20.88
2018-02-17T18:38:58.803Z,20.88
2018-02-17T18:39:58.787Z,20.90
2018-02-17T18:40:58.796Z,20.87
2018-02-17T18:41:58.786Z,20.83
2018-02-17T18:42:58.791Z,20.81
2018-02-17T18:43:58.787Z,20.85
2018-02-17T18:44:58.792Z,20.88
2018-02-17T18:45:58.797Z,20.90
2018-02-17T18:46:58.778Z,20.87
2018-02-17T18:47:58.769Z,20.85
2018-02-17T18:48:58.753Z,20.97
2018-02-17T18:49:58.754Z,21.01
2018-02-17T18:50:58.771Z,20.96
2018-02-17T18:51:58.758Z,21.01
2018-02-17T18:52:58.788Z,20.98
2018-02-17T18:53:58.795Z,20.96
2018-02-17T18:54:58.727Z,21.03
2018-02-17T18:55:58.721Z,20.98
2018-02-17T18:56:58.734Z,20.97
2018-02-17T18:57:58.714Z,20.97
2018-02-17T18:58:58.712Z,20.97
2018-02-17T18:59:58.727Z,20.98
2018-02-17T19:00:58.710Z,21.00
2018-02-17T19:01:58.704Z,20.97
2018-02-17T19:02:58.696Z,20.94
2018-02-17T19:03:58.694Z,21.03
2018-02-17T19:04:58.694Z,20.98
2018-02-17T19:05:58.678Z,20.97
2018-02-17T19:06:58.701Z,20.94
2018-02-17T19:07:58.676Z,20.90
2018-02-17T19:08:58.691Z,20.90
2018-02-17T19:09:58.703Z,20.90
2018-02-17T19:10:58.648Z,20.91
2018-02-17T19:11:58.692Z,20.91
2018-02-17T19:12:58.644Z,20.88
2018-02-17T19:13:58.672Z,20.85
2018-02-17T19:14:58.647Z,20.97
2018-02-17T19:15:58.651Z,20.90
2018-02-17T19:16:58.655Z,20.88
2018-02-17T19:17:58.633Z,20.83
2018-02-17T19:18:58.652Z,20.83
2018-02-17T19:19:58.621Z,20.83
2018-02-17T19:20:58.620Z,20.81
2018-02-17T19:21:58.660Z,20.75
2018-02-17T19:22:58.628Z,20.81
2018-02-17T19:23:58.628Z,20.87
2018-02-17T19:24:58.610Z,20.83
2018-02-17T19:25:58.604Z,20.88
2018-02-17T19:26:58.597Z,20.85
2018-02-17T19:27:58.600Z,20.85
2018-02-17T19:28:58.649Z,20.83
2018-02-17T19:29:58.567Z,20.83
2018-02-17T19:30:58.633Z,20.83
2018-02-17T19:31:58.575Z,20.83
2018-02-17T19:32:58.557Z,20.79
2018-02-17T19:33:58.561Z,20.75
2018-02-17T19:34:58.580Z,20.72
2018-02-17T19:35:58.579Z,20.75
2018-02-17T19:36:58.539Z,20.73
2018-02-17T19:37:58.554Z,20.79
2018-02-17T19:38:58.573Z,20.75
2018-02-17T19:39:58.539Z,20.72
2018-02-17T19:40:58.561Z,20.71
2018-02-17T19:41:58.537Z,20.78
2018-02-17T19:42:58.538Z,20.75
2018-02-17T19:43:58.538Z,20.78
2018-02-17T19:44:58.514Z,20.75
2018-02-17T19:45:58.508Z,20.76
2018-02-17T19:46:58.504Z,20.71
2018-02-17T19:47:58.496Z,20.78
2018-02-17T19:48:58.513Z,20.68
2018-02-17T19:49:58.496Z,20.81
2018-02-17T19:50:58.501Z,20.75
2018-02-17T19:51:58.494Z,20.75
2018-02-17T19:52:58.477Z,20.76
2018-02-17T19:53:58.508Z,20.61
2018-02-17T19:54:58.463Z,20.66
2018-02-17T19:55:58.452Z,20.64
2018-02-17T19:56:58.504Z,20.60
2018-02-17T19:57:58.480Z,20.57
2018-02-17T19:58:58.451Z,20.61
2018-02-17T19:59:58.455Z,20.61
2018-02-17T20:00:58.448Z,20.63
2018-02-17T20:01:58.442Z,20.61
2018-02-17T20:02:58.447Z,20.63
2018-02-17T20:03:58.443Z,20.71
2018-02-17T20:04:58.467Z,20.57
2018-02-17T20:05:58.444Z,20.66
2018-02-17T20:06:58.449Z,20.58
2018-02-17T20:07:58.458Z,20.60
2018-02-17T20:08:58.463Z,20.60
2018-02-17T20:09:58.398Z,20.53
2018-02-17T20:10:58.472Z,20.60
2018-02-17T20:11:58.395Z,20.60
2018-02-17T20:12:58.405Z,20.60
2018-02-17T20:13:58.392Z,20.58
2018-02-17T20:14:58.370Z,20.51
2018-02-17T20:15:58.389Z,20.48
2018-02-17T20:16:58.400Z,20.56
2018-02-17T20:17:58.387Z,20.58
2018-02-17T20:18:58.369Z,20.54
2018-02-17T20:19:58.397Z,20.60
2018-02-17T20:20:58.367Z,20.58
2018-02-17T20:21:58.356Z,20.57
2018-02-17T20:22:58.370Z,20.66
2018-02-17T20:23:58.344Z,20.60
2018-02-17T20:24:58.361Z,20.57
2018-02-17T20:25:58.330Z,20.57
2018-02-17T20:26:58.362Z,20.57
2018-02-17T20:27:58.322Z,20.63
2018-02-17T20:28:58.330Z,20.73
2018-02-17T20:29:58.337Z,20.75
2018-02-17T20:30:58.328Z,20.60
2018-02-17T20:31:58.307Z,20.63
2018-02-17T20:32:58.298Z,20.61
2018-02-17T20:33:58.302Z,20.61
2018-02-17T20:34:58.301Z,20.60
2018-02-17T20:35:58.316Z,20.63
2018-02-17T20:36:58.283Z,20.61
2018-02-17T20:37:58.306Z,20.60
2018-02-17T20:38:58.274Z,20.57
2018-02-17T20:39:58.275Z,20.54
2018-02-17T20:40:58.274Z,20.60
2018-02-17T20:41:58.264Z,20.42
2018-02-17T20:42:58.272Z,20.42
2018-02-17T20:43:58.257Z,20.48
2018-02-17T20:44:58.253Z,20.41
2018-02-17T20:45:58.249Z,20.41
2018-02-17T20:46:58.267Z,20.48
2018-02-17T20:47:58.257Z,20.44
2018-02-17T20:48:58.249Z,20.44
2018-02-17T20:49:58.230Z,20.44
2018-02-17T20:50:58.264Z,20.46
2018-02-17T20:51:58.235Z,20.33
2018-02-17T20:52:58.216Z,20.42
2018-02-17T20:53:58.212Z,20.38
2018-02-17T20:54:58.220Z,20.41
2018-02-17T20:55:58.210Z,20.35
2018-02-17T20:56:58.206Z,20.34
2018-02-17T20:57:58.251Z,20.31
2018-02-17T20:58:58.205Z,20.31
2018-02-17T20:59:58.203Z,20.25
2018-02-17T21:00:58.236Z,20.33
2018-02-17T21:01:58.226Z,20.23
2018-02-17T21:02:58.210Z,20.31
2018-02-17T21:03:58.188Z,20.19
2018-02-17T21:04:58.187Z,20.26
2018-02-17T21:05:58.185Z,20.26
2018-02-17T21:06:58.184Z,20.19
2018-02-17T21:07:58.202Z,20.12
2018-02-17T21:08:58.147Z,20.13
2018-02-17T21:09:58.173Z,20.17
2018-02-17T21:10:58.144Z,20.19
2018-02-17T21:11:58.135Z,20.19
2018-02-17T21:12:58.143Z,20.16
2018-02-17T21:13:58.122Z,20.15
2018-02-17T21:14:58.138Z,20.19
2018-02-17T21:15:58.121Z,20.17
2018-02-17T21:16:58.101Z,20.19
2018-02-17T21:17:58.095Z,20.13
2018-02-17T21:18:58.102Z,20.16
2018-02-17T21:19:58.093Z,20.16
2018-02-17T21:20:58.098Z,20.10
2018-02-17T21:21:58.106Z,20.16
2018-02-17T21:22:58.090Z,20.05
2018-02-17T21:23:58.088Z,20.10
2018-02-17T21:24:58.088Z,20.17
2018-02-17T21:25:58.093Z,20.12
2018-02-17T21:26:58.068Z,20.04
2018-02-17T21:27:58.058Z,20.07
2018-02-17T21:28:58.089Z,20.07
2018-02-17T21:29:58.056Z,19.98
2018-02-17T21:30:58.053Z,20.04
2018-02-17T21:31:58.055Z,20.02
2018-02-17T21:32:58.039Z,20.01
2018-02-17T21:33:58.047Z,20.05
2018-02-17T21:34:58.034Z,20.05
2018-02-17T21:35:58.015Z,20.04
2018-02-17T21:36:58.010Z,20.10
2018-02-17T21:37:58.002Z,20.04
2018-02-17T21:38:58.004Z,20.02
2018-02-17T21:39:58.015Z,20.02
2018-02-17T21:40:58.009Z,20.05
2018-02-17T21:41:57.986Z,20.02
2018-02-17T21:42:57.992Z,20.04
2018-02-17T21:43:58.014Z,19.94
2018-02-17T21:44:57.994Z,19.92
2018-02-17T21:45:57.979Z,19.97
2018-02-17T21:46:58.007Z,20.05
2018-02-17T21:47:57.963Z,19.92
2018-02-17T21:48:57.965Z,19.94
2018-02-17T21:49:57.947Z,19.98
2018-02-17T21:50:57.954Z,20.02
2018-02-17T21:51:57.945Z,19.87
2018-02-17T21:52:57.943Z,19.94
2018-02-17T21:53:57.927Z,19.95
2018-02-17T21:54:57.930Z,19.94
2018-02-17T21:55:57.928Z,19.94
2018-02-17T21:56:57.915Z,19.92
2018-02-17T21:57:57.931Z,19.94
2018-02-17T21:58:57.923Z,19.92
2018-02-17T21:59:57.903Z,19.90
2018-02-17T22:00:57.953Z,19.90
2018-02-17T22:01:57.920Z,19.92
2018-02-17T22:02:57.925Z,19.94
2018-02-17T22:03:57.901Z,19.87
2018-02-17T22:04:57.889Z,19.87
2018-02-17T22:05:57.928Z,19.80
2018-02-17T22:06:57.890Z,19.80
2018-02-17T22:07:57.884Z,19.80
2018-02-17T22:08:57.868Z,19.80
2018-02-17T22:09:57.852Z,19.86
2018-02-17T22:10:57.873Z,19.82
2018-02-17T22:11:57.862Z,19.75
2018-02-17T22:12:57.844Z,19.80
2018-02-17T22:13:57.850Z,19.79
2018-02-17T22:14:57.826Z,19.79
2018-02-17T22:15:57.842Z,19.80
2018-02-17T22:16:57.842Z,19.79
2018-02-17T22:17:57.825Z,19.80
2018-02-17T22:18:57.815Z,19.78
2018-02-17T22:19:57.814Z,19.80
2018-02-17T22:20:57.821Z,19.78
2018-02-17T22:21:57.797Z,19.75
2018-02-17T22:22:57.805Z,19.79
2018-02-17T22:23:57.791Z,19.79
2018-02-17T22:24:57.792Z,19.70
2018-02-17T22:25:57.796Z,19.83
2018-02-17T22:26:57.788Z,19.79
2018-02-17T22:27:57.771Z,19.71
2018-02-17T22:28:57.770Z,19.78
2018-02-17T22:29:57.760Z,19.79
2018-02-17T22:30:57.775Z,19.78
2018-02-17T22:31:57.777Z,19.72
2018-02-17T22:32:57.750Z,19.76
2018-02-17T22:33:57.747Z,19.76
2018-02-17T22:34:57.745Z,19.68
2018-02-17T22:35:57.756Z,19.75
2018-02-17T22:36:57.741Z,19.70
2018-02-17T22:37:57.732Z,19.78
2018-02-17T22:38:57.720Z,19.76
2018-02-17T22:39:57.717Z,19.78
2018-02-17T22:40:57.711Z,19.70
2018-02-17T22:41:57.705Z,19.72
2018-02-17T22:42:57.708Z,19.72
2018-02-17T22:43:57.696Z,19.67
2018-02-17T22:44:57.691Z,19.78
2018-02-17T22:45:57.693Z,19.72
2018-02-17T22:46:57.686Z,19.76
2018-02-17T22:47:57.690Z,19.71
2018-02-17T22:48:57.682Z,19.72
2018-02-17T22:49:57.682Z,19.68
2018-02-17T22:50:57.660Z,19.75
2018-02-17T22:51:57.653Z,19.62
2018-02-17T22:52:57.669Z,19.60
2018-02-17T22:53:57.651Z,19.64
2018-02-17T22:54:57.640Z,19.64
2018-02-17T22:55:57.637Z,19.67
2018-02-17T22:56:57.640Z,19.72
2018-02-17T22:57:57.626Z,19.67
2018-02-17T22:58:57.628Z,19.78
2018-02-17T22:59:57.618Z,19.58
2018-02-17T23:00:57.613Z,19.71
2018-02-17T23:01:57.615Z,19.67
2018-02-17T23:02:57.612Z,19.65
2018-02-17T23:03:57.599Z,19.68
2018-02-17T23:04:57.592Z,19.67
2018-02-17T23:05:57.582Z,19.64
2018-02-17T23:06:57.600Z,19.79
2018-02-17T23:07:57.579Z,19.72
2018-02-17T23:08:57.581Z,19.71
2018-02-17T23:09:57.570Z,19.68
2018-02-17T23:10:57.558Z,19.67
2018-02-17T23:11:57.565Z,19.67
2018-02-17T23:12:57.552Z,19.67
2018-02-17T23:13:57.561Z,19.64
2018-02-17T23:14:57.547Z,19.70
2018-02-17T23:15:57.544Z,19.64
2018-02-17T23:16:57.532Z,19.67
2018-02-17T23:17:57.523Z,19.70
2018-02-17T23:18:57.535Z,19.68
2018-02-17T23:19:57.515Z,19.62
2018-02-17T23:20:57.516Z,19.64
2018-02-17T23:21:57.512Z,19.62
2018-02-17T23:22:57.512Z,19.68
2018-02-17T23:23:57.498Z,19.64
2018-02-17T23:24:57.497Z,19.65
2018-02-17T23:25:57.480Z,19.67
2018-02-17T23:26:57.478Z,19.65
2018-02-17T23:27:57.502Z,19.60
2018-02-17T23:28:57.476Z,19.60
2018-02-17T23:29:57.472Z,19.57
2018-02-17T23:30:57.462Z,19.58
2018-02-17T23:31:57.461Z,19.62
2018-02-17T23:32:57.454Z,19.64
2018-02-17T23:33:57.446Z,19.58
2018-02-17T23:34:57.452Z,19.61
2018-02-17T23:35:57.448Z,19.61
2018-02-17T23:36:57.437Z,19.67
2018-02-17T23:37:57.432Z,19.57
2018-02-17T23:38:57.417Z,19.53
2018-02-17T23:39:57.433Z,19.64
2018-02-17T23:40:57.417Z,19.60
2018-02-17T23:41:57.409Z,19.57
2018-02-17T23:42:57.395Z,19.62
2018-02-17T23:43:57.398Z,19.58
2018-02-17T23:44:57.397Z,19.65
2018-02-17T23:45:57.409Z,19.52
2018-02-17T23:46:57.393Z,19.47
2018-02-17T23:47:57.387Z,19.55
2018-02-17T23:48:57.372Z,19.64
2018-02-17T23:49:57.369Z,19.50
2018-02-17T23:50:57.358Z,19.53
2018-02-17T23:51:57.361Z,19.64
2018-02-17T23:52:57.346Z,19.52
2018-02-17T23:53:57.341Z,19.61
2018-02-17T23:54:57.337Z,19.50
2018-02-17T23:55:57.338Z,19.50
2018-02-17T23:56:57.333Z,19.57
2018-02-17T23:57:57.319Z,19.47
2018-02-17T23:58:57.331Z,19.52
2018-02-17T23:59:57.315Z,19.49
